createdAt,value
2022-08-17T00:00:12.795Z,70.60
2022-08-17T00:03:00.970Z,70.00
2022-08-17T00:05:34.843Z,70.80
2022-08-17T00:08:02.871Z,70.30
2022-08-17T00:10:32.405Z,69.60
2022-08-17T00:13:00.695Z,69.40
2022-08-17T00:15:28.573Z,69.40
2022-08-17T00:17:56.320Z,69.30
2022-08-17T00:20:34.692Z,68.80
2022-08-17T00:23:10.727Z,69.70
2022-08-17T00:25:39.035Z,69.10
2022-08-17T00:28:07.670Z,69.90
2022-08-17T00:30:52.868Z,70.20
2022-08-17T00:33:25.223Z,70.20
2022-08-17T00:35:54.095Z,70.10
2022-08-17T00:38:24.083Z,70.30
2022-08-17T00:40:55.946Z,70.60
2022-08-17T00:43:30.238Z,70.60
2022-08-17T00:45:59.497Z,70.20
2022-08-17T00:48:29.832Z,70.40
2022-08-17T00:51:03.841Z,70.40
2022-08-17T00:53:35.400Z,70.50
2022-08-17T00:56:06.958Z,70.00
2022-08-17T00:58:37.255Z,69.60
2022-08-17T01:01:06.038Z,69.00
2022-08-17T01:03:35.868Z,69.80
2022-08-17T01:06:04.666Z,69.80
2022-08-17T01:08:34.342Z,70.00
2022-08-17T01:11:04.039Z,70.10
2022-08-17T01:13:40.420Z,70.10
2022-08-17T01:16:15.796Z,70.30
2022-08-17T01:18:44.772Z,70.40
2022-08-17T01:21:22.255Z,70.40
2022-08-17T01:23:51.491Z,70.10
2022-08-17T01:26:19.629Z,70.10
2022-08-17T01:28:55.030Z,69.80
2022-08-17T01:31:26.021Z,70.30
2022-08-17T01:33:54.448Z,70.60
2022-08-17T01:36:22.381Z,70.30
2022-08-17T01:38:51.604Z,70.20
2022-08-17T01:41:21.961Z,70.20
2022-08-17T01:43:54.871Z,70.30
2022-08-17T01:46:26.667Z,70.60
2022-08-17T01:48:55.021Z,70.50
2022-08-17T01:51:23.439Z,70.70
2022-08-17T01:53:57.349Z,70.90
2022-08-17T01:56:26.851Z,70.90
2022-08-17T01:58:55.084Z,71.00
2022-08-17T02:01:26.360Z,70.70
2022-08-17T02:04:00.462Z,70.70
2022-08-17T02:06:31.475Z,70.60
2022-08-17T02:09:16.990Z,70.60
2022-08-17T02:11:46.290Z,70.70
2022-08-17T02:14:15.263Z,71.00
2022-08-17T02:16:43.814Z,71.10
2022-08-17T02:19:15.518Z,71.40
2022-08-17T02:21:45.340Z,72.00
2022-08-17T02:24:18.190Z,72.70
2022-08-17T02:27:06.783Z,73.70
2022-08-17T02:29:34.659Z,75.40
2022-08-17T02:32:02.698Z,76.80
2022-08-17T02:34:31.189Z,77.80
2022-08-17T02:36:58.976Z,78.60
2022-08-17T02:39:28.124Z,80.00
2022-08-17T02:42:02.372Z,81.80
2022-08-17T02:44:39.705Z,84.00
2022-08-17T02:47:09.820Z,85.70
2022-08-17T02:49:38.195Z,87.10
2022-08-17T02:52:08.073Z,89.40
2022-08-17T02:54:39.706Z,91.60
2022-08-17T02:57:10.321Z,93.50
2022-08-17T02:59:38.238Z,93.90
2022-08-17T03:02:08.381Z,95.10
2022-08-17T03:04:36.689Z,96.00
2022-08-17T03:07:05.357Z,96.60
2022-08-17T03:09:33.118Z,95.90
2022-08-17T03:12:08.179Z,95.60
2022-08-17T03:14:41.285Z,95.50
2022-08-17T03:17:09.814Z,94.90
2022-08-17T03:19:42.219Z,94.10
2022-08-17T03:22:34.737Z,94.40
2022-08-17T03:24:59.612Z,96.70
2022-08-17T03:27:28.721Z,98.10
2022-08-17T03:29:56.493Z,97.10
2022-08-17T03:32:24.256Z,96.10
2022-08-17T03:34:52.176Z,96.20
2022-08-17T03:37:19.983Z,97.50
2022-08-17T03:39:47.792Z,98.50
2022-08-17T03:42:32.314Z,99.30
2022-08-17T03:45:03.220Z,99.20
2022-08-17T03:47:48.741Z,98.50
2022-08-17T03:50:35.280Z,98.30
2022-08-17T03:53:24.919Z,98.10
2022-08-17T03:56:10.339Z,97.90
2022-08-17T03:58:38.148Z,99.90
2022-08-17T04:01:08.182Z,99.90
2022-08-17T04:03:36.397Z,99.90
2022-08-17T04:06:05.424Z,99.90
2022-08-17T04:08:33.733Z,99.90
2022-08-17T04:11:02.249Z,99.90
2022-08-17T04:13:30.197Z,99.90
2022-08-17T04:15:59.125Z,99.50
2022-08-17T04:18:28.265Z,99.70
2022-08-17T04:20:56.107Z,99.60
2022-08-17T04:23:28.240Z,99.90
2022-08-17T04:25:56.008Z,99.90
2022-08-17T04:28:23.785Z,99.90
2022-08-17T04:30:51.792Z,99.90
2022-08-17T04:33:23.937Z,99.90
2022-08-17T04:35:54.956Z,99.90
2022-08-17T04:38:25.293Z,99.90
2022-08-17T04:41:11.578Z,99.90
2022-08-17T04:43:40.090Z,99.90
2022-08-17T04:46:10.409Z,99.90
2022-08-17T04:48:40.139Z,98.30
2022-08-17T04:51:13.180Z,96.80
2022-08-17T04:53:42.812Z,96.00
2022-08-17T04:56:16.969Z,94.50
2022-08-17T04:58:50.118Z,94.00
2022-08-17T05:01:23.931Z,92.60
2022-08-17T05:03:52.704Z,91.00
2022-08-17T05:06:22.093Z,90.30
2022-08-17T05:08:49.913Z,89.50
2022-08-17T05:11:17.980Z,88.80
2022-08-17T05:13:45.780Z,88.20
2022-08-17T05:16:13.647Z,87.70
2022-08-17T05:18:41.385Z,86.80
2022-08-17T05:21:09.938Z,85.80
2022-08-17T05:23:43.070Z,85.10
2022-08-17T05:26:25.652Z,85.30
2022-08-17T05:29:00.583Z,85.80
2022-08-17T05:31:31.561Z,85.20
2022-08-17T05:33:59.658Z,84.70
2022-08-17T05:36:42.840Z,84.70
2022-08-17T05:39:16.356Z,84.90
2022-08-17T05:41:46.685Z,84.60
2022-08-17T05:44:14.615Z,83.90
2022-08-17T05:46:46.237Z,82.20
2022-08-17T05:49:17.008Z,81.00
2022-08-17T05:52:00.564Z,79.80
2022-08-17T05:54:40.290Z,79.20
2022-08-17T05:57:24.706Z,78.30
2022-08-17T06:00:01.777Z,76.90
2022-08-17T06:02:47.063Z,76.80
2022-08-17T06:05:26.091Z,76.10
2022-08-17T06:08:00.952Z,74.50
2022-08-17T06:10:48.553Z,74.50
2022-08-17T06:13:25.206Z,74.70
2022-08-17T06:16:02.931Z,74.30
2022-08-17T06:18:45.138Z,73.80
2022-08-17T06:21:15.733Z,73.10
2022-08-17T06:23:49.340Z,72.80
2022-08-17T06:26:22.034Z,72.90
2022-08-17T06:28:59.364Z,72.60
2022-08-17T06:31:32.133Z,73.00
2022-08-17T06:34:02.692Z,72.20
2022-08-17T06:36:53.938Z,72.30
2022-08-17T06:39:34.160Z,72.80
2022-08-17T06:42:53.962Z,72.90
2022-08-17T06:45:08.395Z,71.20
2022-08-17T06:47:40.977Z,70.70
2022-08-17T06:50:15.532Z,71.00
2022-08-17T06:52:51.796Z,71.40
2022-08-17T06:55:26.231Z,72.00
2022-08-17T06:57:59.974Z,71.70
2022-08-17T07:00:40.673Z,72.40
2022-08-17T07:03:18.943Z,73.00
2022-08-17T07:05:57.651Z,73.50
2022-08-17T07:08:35.074Z,73.60
2022-08-17T07:11:07.871Z,73.00
2022-08-17T07:13:49.208Z,72.90
2022-08-17T07:16:24.631Z,72.50
2022-08-17T07:18:54.744Z,73.00
2022-08-17T07:21:39.387Z,74.10
2022-08-17T07:24:26.309Z,74.70
2022-08-17T07:27:11.592Z,75.30
2022-08-17T07:29:46.296Z,75.40
2022-08-17T07:32:18.776Z,75.60
2022-08-17T07:35:08.458Z,75.80
2022-08-17T07:37:40.531Z,76.70
2022-08-17T07:40:18.700Z,77.20
2022-08-17T07:43:03.291Z,80.00
2022-08-17T07:45:53.819Z,83.40
2022-08-17T07:48:25.145Z,81.70
2022-08-17T07:50:53.886Z,80.90
2022-08-17T07:53:24.062Z,80.50
2022-08-17T07:55:53.461Z,79.80
2022-08-17T07:58:23.992Z,77.90
2022-08-17T08:01:08.660Z,78.40
2022-08-17T08:03:42.040Z,77.40
2022-08-17T08:06:20.753Z,76.60
2022-08-17T08:08:53.559Z,76.50
2022-08-17T08:11:32.241Z,75.10
2022-08-17T08:14:21.405Z,75.20
2022-08-17T08:17:02.150Z,73.50
2022-08-17T08:19:31.280Z,73.90
2022-08-17T08:22:06.717Z,73.60
2022-08-17T08:24:55.682Z,73.90
2022-08-17T08:27:33.773Z,74.00
2022-08-17T08:30:07.791Z,73.90
2022-08-17T08:32:53.980Z,74.70
2022-08-17T08:35:30.849Z,74.10
2022-08-17T08:38:07.470Z,73.10
2022-08-17T08:40:47.123Z,72.80
2022-08-17T08:43:26.420Z,72.10
2022-08-17T08:46:05.147Z,72.60
2022-08-17T08:48:58.450Z,73.30
2022-08-17T08:51:39.602Z,75.50
2022-08-17T08:54:16.390Z,78.40
2022-08-17T08:57:21.495Z,78.90
2022-08-17T08:59:58.075Z,80.60
2022-08-17T09:02:40.579Z,81.80
2022-08-17T09:05:19.526Z,80.20
2022-08-17T09:08:00.081Z,80.70
2022-08-17T09:10:34.403Z,81.90
2022-08-17T09:13:15.118Z,82.90
2022-08-17T09:15:48.722Z,80.30
2022-08-17T09:19:00.954Z,79.60
2022-08-17T09:21:21.396Z,79.30
2022-08-17T09:24:04.712Z,79.10
2022-08-17T09:26:37.617Z,78.90
2022-08-17T09:29:10.264Z,81.60
2022-08-17T09:31:50.056Z,81.60
2022-08-17T09:34:31.965Z,80.80
2022-08-17T09:37:12.145Z,79.90
2022-08-17T09:39:45.820Z,79.90
2022-08-17T09:42:22.622Z,80.20
2022-08-17T09:44:56.190Z,79.40
2022-08-17T09:47:30.855Z,77.80
2022-08-17T09:50:04.320Z,76.10
2022-08-17T09:52:33.818Z,75.20
2022-08-17T09:55:02.043Z,74.70
2022-08-17T09:57:51.179Z,73.60
2022-08-17T10:00:24.922Z,72.80
2022-08-17T10:03:06.077Z,71.20
2022-08-17T10:05:41.265Z,69.60
2022-08-17T10:08:21.880Z,69.70
2022-08-17T10:11:00.005Z,68.40
2022-08-17T10:13:38.362Z,68.40
2022-08-17T10:16:14.600Z,68.10
2022-08-17T10:18:51.408Z,68.30
2022-08-17T10:21:37.483Z,68.60
2022-08-17T10:24:28.965Z,68.90
2022-08-17T10:27:00.994Z,69.20
2022-08-17T10:29:49.226Z,69.10
2022-08-17T10:32:26.389Z,69.60
2022-08-17T10:35:11.459Z,70.30
2022-08-17T10:37:52.643Z,72.20
2022-08-17T10:40:33.521Z,74.60
2022-08-17T10:43:13.343Z,76.30
2022-08-17T10:46:10.510Z,76.50
2022-08-17T10:48:42.207Z,76.10
2022-08-17T10:51:12.517Z,75.50
2022-08-17T10:53:54.693Z,74.70
2022-08-17T10:56:39.189Z,74.00
2022-08-17T10:59:07.017Z,73.80
2022-08-17T11:02:00.901Z,73.70
2022-08-17T11:04:46.293Z,73.20
2022-08-17T11:07:21.696Z,73.40
2022-08-17T11:10:10.417Z,73.70
2022-08-17T11:12:51.288Z,74.00
2022-08-17T11:15:31.245Z,73.90
2022-08-17T11:18:19.712Z,74.10
2022-08-17T11:21:03.801Z,74.50
2022-08-17T11:24:08.578Z,74.40
2022-08-17T11:26:38.938Z,73.20
2022-08-17T11:29:18.666Z,72.60
2022-08-17T11:32:01.103Z,70.60
2022-08-17T11:34:30.888Z,66.80
2022-08-17T11:37:37.128Z,64.10
2022-08-17T11:40:32.257Z,62.30
2022-08-17T11:43:15.260Z,59.90
2022-08-17T11:46:03.743Z,60.10
2022-08-17T11:48:56.572Z,58.80
2022-08-17T11:51:45.149Z,57.80
2022-08-17T11:54:39.231Z,58.60
2022-08-17T11:57:40.683Z,58.60
2022-08-17T12:00:30.052Z,58.80
2022-08-17T12:03:24.667Z,58.60
2022-08-17T12:06:01.938Z,58.90
2022-08-17T12:08:32.519Z,58.70
2022-08-17T12:11:07.165Z,59.00
2022-08-17T12:13:44.242Z,59.30
2022-08-17T12:16:16.266Z,58.60
2022-08-17T12:18:52.131Z,58.80
2022-08-17T12:21:37.218Z,59.50
2022-08-17T12:24:14.147Z,59.70
2022-08-17T12:26:45.145Z,60.00
2022-08-17T12:29:18.020Z,59.20
2022-08-17T12:32:04.649Z,58.70
2022-08-17T12:34:37.084Z,58.10
2022-08-17T12:37:14.509Z,57.50
2022-08-17T12:39:53.645Z,57.20
2022-08-17T12:42:32.027Z,57.60
2022-08-17T12:45:00.196Z,58.00
2022-08-17T12:47:31.732Z,57.90
2022-08-17T12:50:29.655Z,57.60
2022-08-17T12:53:01.709Z,57.40
2022-08-17T12:55:35.650Z,56.30
2022-08-17T12:58:04.946Z,56.40
2022-08-17T13:00:37.869Z,56.00
2022-08-17T13:03:09.012Z,55.60
2022-08-17T13:05:40.057Z,56.60
2022-08-17T13:08:17.116Z,56.70
2022-08-17T13:10:54.677Z,56.90
2022-08-17T13:13:27.401Z,57.20
2022-08-17T13:15:58.028Z,57.10
2022-08-17T13:18:42.688Z,56.60
2022-08-17T13:21:19.038Z,56.20
2022-08-17T13:23:56.928Z,55.60
2022-08-17T13:26:31.177Z,54.80
2022-08-17T13:29:01.157Z,53.60
2022-08-17T13:31:39.410Z,52.60
2022-08-17T13:34:38.104Z,52.10
2022-08-17T13:37:32.297Z,51.50
2022-08-17T13:40:22.297Z,50.90
2022-08-17T13:42:54.062Z,51.40
2022-08-17T13:45:51.573Z,51.10
2022-08-17T13:48:26.703Z,51.20
2022-08-17T13:51:14.949Z,50.60
2022-08-17T13:53:59.177Z,50.40
2022-08-17T13:56:38.902Z,50.40
2022-08-17T13:59:11.006Z,50.60
2022-08-17T14:01:43.562Z,50.10
2022-08-17T14:04:15.049Z,49.70
2022-08-17T14:06:54.207Z,49.50
2022-08-17T14:09:24.729Z,49.10
2022-08-17T14:11:53.957Z,49.20
2022-08-17T14:14:23.557Z,48.90
2022-08-17T14:16:53.334Z,48.20
2022-08-17T14:19:22.069Z,47.70
2022-08-17T14:21:50.260Z,47.40
2022-08-17T14:24:23.331Z,47.70
2022-08-17T14:26:52.825Z,47.70
2022-08-17T14:29:21.019Z,47.50
2022-08-17T14:31:54.190Z,47.90
2022-08-17T14:34:25.046Z,47.70
2022-08-17T14:36:53.302Z,47.80
2022-08-17T14:39:21.377Z,47.70
2022-08-17T14:41:49.893Z,47.60
2022-08-17T14:44:17.665Z,47.80
2022-08-17T14:46:46.137Z,47.60
2022-08-17T14:49:15.552Z,46.80
2022-08-17T14:51:44.895Z,47.10
2022-08-17T14:54:32.881Z,46.90
2022-08-17T14:57:22.642Z,47.00
2022-08-17T14:59:53.365Z,46.90
2022-08-17T15:02:30.519Z,47.00
2022-08-17T15:05:03.052Z,46.50
2022-08-17T15:07:32.268Z,46.20
2022-08-17T15:10:01.355Z,46.20
2022-08-17T15:12:34.579Z,46.60
2022-08-17T15:15:04.565Z,46.50
2022-08-17T15:17:45.063Z,46.40
2022-08-17T15:20:15.645Z,46.60
2022-08-17T15:22:46.182Z,46.50
2022-08-17T15:25:15.024Z,46.30
2022-08-17T15:27:43.878Z,45.40
2022-08-17T15:30:12.815Z,44.40
2022-08-17T15:32:45.656Z,44.50
2022-08-17T15:35:18.624Z,44.70
2022-08-17T15:37:47.780Z,43.70
2022-08-17T15:40:15.572Z,43.50
2022-08-17T15:42:43.344Z,43.50
2022-08-17T15:45:13.414Z,43.50
2022-08-17T15:47:42.860Z,44.00
2022-08-17T15:50:11.617Z,43.90
2022-08-17T15:52:40.528Z,44.30
2022-08-17T15:55:12.932Z,44.20
2022-08-17T15:57:40.806Z,44.40
2022-08-17T16:00:11.084Z,43.90
2022-08-17T16:03:44.679Z,42.10
2022-08-17T16:05:28.410Z,42.00
2022-08-17T16:07:59.464Z,42.00
2022-08-17T16:10:33.940Z,41.80
2022-08-17T16:13:04.505Z,42.20
2022-08-17T16:15:32.796Z,42.60
2022-08-17T16:18:00.914Z,42.40
2022-08-17T16:20:30.533Z,42.70
2022-08-17T16:22:58.723Z,42.50
2022-08-17T16:25:38.353Z,42.20
2022-08-17T16:28:19.623Z,42.70
2022-08-17T16:30:47.373Z,43.00
2022-08-17T16:33:16.605Z,43.20
2022-08-17T16:35:44.398Z,43.30
2022-08-17T16:38:12.434Z,43.50
2022-08-17T16:40:42.344Z,43.50
2022-08-17T16:43:11.895Z,43.40
2022-08-17T16:45:40.511Z,43.40
2022-08-17T16:48:09.735Z,44.00
2022-08-17T16:50:37.927Z,44.80
2022-08-17T16:53:07.614Z,44.90
2022-08-17T16:55:36.448Z,45.80
2022-08-17T16:58:08.667Z,45.90
2022-08-17T17:00:37.119Z,45.60
2022-08-17T17:03:19.068Z,46.10
2022-08-17T17:06:03.683Z,46.30
2022-08-17T17:08:40.820Z,46.50
2022-08-17T17:11:15.800Z,45.90
2022-08-17T17:13:54.030Z,46.00
2022-08-17T17:16:26.212Z,46.50
2022-08-17T17:19:08.908Z,47.00
2022-08-17T17:21:43.385Z,47.30
2022-08-17T17:24:16.691Z,47.50
2022-08-17T17:27:09.347Z,47.70
2022-08-17T17:29:49.301Z,48.00
2022-08-17T17:32:22.988Z,48.10
2022-08-17T17:35:02.095Z,48.50
2022-08-17T17:37:33.901Z,48.70
2022-08-17T17:40:05.914Z,48.70
2022-08-17T17:42:35.469Z,48.80
2022-08-17T17:45:13.113Z,49.10
2022-08-17T17:47:41.034Z,49.40
2022-08-17T17:50:09.668Z,49.50
2022-08-17T17:52:47.285Z,49.40
2022-08-17T17:55:34.583Z,49.70
2022-08-17T17:58:14.584Z,49.90
2022-08-17T18:00:50.033Z,50.00
2022-08-17T18:03:26.679Z,50.20
2022-08-17T18:06:17.425Z,52.10
2022-08-17T18:09:03.603Z,52.30
2022-08-17T18:11:53.874Z,52.20
2022-08-17T18:14:38.459Z,51.90
2022-08-17T18:17:07.972Z,52.50
2022-08-17T18:19:39.943Z,52.80
2022-08-17T18:22:13.088Z,52.50
2022-08-17T18:24:44.872Z,52.70
2022-08-17T18:27:23.140Z,52.90
2022-08-17T18:29:53.684Z,54.50
2022-08-17T18:32:35.689Z,55.30
2022-08-17T18:35:28.469Z,59.70
2022-08-17T18:37:58.904Z,58.80
2022-08-17T18:40:37.473Z,58.70
2022-08-17T18:43:12.175Z,58.90
2022-08-17T18:45:45.646Z,58.70
2022-08-17T18:48:33.065Z,57.40
2022-08-17T18:51:04.961Z,56.20
2022-08-17T18:53:37.596Z,56.10
2022-08-17T18:56:27.965Z,54.90
2022-08-17T18:59:19.788Z,54.30
2022-08-17T19:02:10.175Z,54.50
2022-08-17T19:04:56.599Z,54.60
2022-08-17T19:07:31.979Z,54.70
2022-08-17T19:10:03.734Z,54.70
2022-08-17T19:12:38.000Z,55.40
2022-08-17T19:15:09.154Z,55.70
2022-08-17T19:17:43.175Z,56.30
2022-08-17T19:20:20.353Z,56.60
2022-08-17T19:23:07.840Z,57.00
2022-08-17T19:25:36.967Z,57.40
2022-08-17T19:28:21.639Z,57.40
2022-08-17T19:30:51.677Z,57.70
2022-08-17T19:33:20.162Z,58.10
2022-08-17T19:35:57.253Z,64.70
2022-08-17T19:38:39.737Z,70.90
2022-08-17T19:41:14.071Z,74.60
2022-08-17T19:44:17.249Z,71.50
2022-08-17T19:46:56.101Z,68.50
2022-08-17T19:49:40.865Z,67.50
2022-08-17T19:52:28.669Z,67.20
2022-08-17T19:55:01.462Z,65.40
2022-08-17T19:57:44.809Z,65.80
2022-08-17T20:00:16.240Z,65.60
2022-08-17T20:02:54.847Z,65.00
2022-08-17T20:05:26.315Z,62.70
2022-08-17T20:08:01.845Z,61.90
2022-08-17T20:10:38.260Z,61.50
2022-08-17T20:13:08.704Z,61.80
2022-08-17T20:15:40.195Z,62.00
2022-08-17T20:18:15.169Z,62.00
2022-08-17T20:20:54.961Z,61.80
2022-08-17T20:23:46.813Z,62.90
2022-08-17T20:26:22.027Z,65.40
2022-08-17T20:29:05.940Z,71.50
2022-08-17T20:31:47.062Z,72.60
2022-08-17T20:34:37.443Z,70.30
2022-08-17T20:37:08.948Z,68.60
2022-08-17T20:39:42.365Z,67.90
2022-08-17T20:42:29.452Z,66.20
2022-08-17T20:44:59.113Z,64.50
2022-08-17T20:47:30.537Z,64.20
2022-08-17T20:50:03.013Z,63.20
2022-08-17T20:52:52.814Z,63.20
2022-08-17T20:55:55.452Z,62.50
2022-08-17T20:58:48.765Z,61.90
2022-08-17T21:01:24.120Z,61.30
2022-08-17T21:03:52.480Z,61.80
2022-08-17T21:06:25.924Z,61.20
2022-08-17T21:08:58.593Z,61.50
2022-08-17T21:12:02.522Z,64.30
2022-08-17T21:14:58.521Z,71.50
2022-08-17T21:17:39.578Z,73.80
2022-08-17T21:20:22.904Z,73.30
2022-08-17T21:23:07.009Z,70.40
2022-08-17T21:26:10.166Z,68.40
2022-08-17T21:29:00.965Z,67.80
2022-08-17T21:31:34.820Z,68.00
2022-08-17T21:34:25.721Z,67.70
2022-08-17T21:36:53.562Z,66.90
2022-08-17T21:39:33.255Z,65.80
2022-08-17T21:42:01.639Z,67.30
2022-08-17T21:44:35.412Z,67.10
2022-08-17T21:47:19.876Z,68.00
2022-08-17T21:49:47.646Z,74.70
2022-08-17T21:52:17.588Z,84.10
2022-08-17T21:54:52.009Z,87.50
2022-08-17T21:57:23.948Z,84.20
2022-08-17T21:59:56.999Z,80.90
2022-08-17T22:02:36.033Z,78.60
2022-08-17T22:05:07.605Z,77.90
2022-08-17T22:07:39.192Z,76.00
2022-08-17T22:10:27.448Z,75.10
2022-08-17T22:13:16.414Z,75.10
2022-08-17T22:15:49.076Z,73.80
2022-08-17T22:18:23.721Z,74.30
2022-08-17T22:20:53.972Z,74.20
2022-08-17T22:23:44.856Z,74.50
2022-08-17T22:26:15.484Z,72.90
2022-08-17T22:28:48.785Z,71.50
2022-08-17T22:31:20.329Z,70.60
2022-08-17T22:33:49.977Z,70.50
2022-08-17T22:36:25.027Z,70.60
2022-08-17T22:38:54.673Z,70.80
2022-08-17T22:41:31.721Z,71.40
2022-08-17T22:44:10.016Z,71.80
2022-08-17T22:46:48.280Z,72.80
2022-08-17T22:49:23.232Z,72.00
2022-08-17T22:51:59.388Z,72.00
2022-08-17T22:54:47.053Z,71.90
2022-08-17T22:57:33.986Z,72.10
2022-08-17T23:00:02.062Z,72.20
2022-08-17T23:02:33.625Z,72.20
2022-08-17T23:05:21.253Z,73.40
2022-08-17T23:07:53.782Z,74.80
2022-08-17T23:10:21.557Z,76.00
2022-08-17T23:12:49.406Z,76.50
2022-08-17T23:15:19.530Z,76.80
2022-08-17T23:17:48.814Z,77.00
2022-08-17T23:20:17.446Z,77.60
2022-08-17T23:22:52.725Z,78.60
2022-08-17T23:25:25.682Z,79.40
2022-08-17T23:27:54.389Z,79.80
2022-08-17T23:30:27.135Z,80.90
2022-08-17T23:32:56.757Z,81.80
2022-08-17T23:35:39.116Z,82.60
2022-08-17T23:38:09.551Z,83.10
2022-08-17T23:40:37.763Z,83.50
2022-08-17T23:43:23.402Z,83.60
2022-08-17T23:45:53.696Z,83.80
2022-08-17T23:48:36.314Z,84.80
2022-08-17T23:51:08.991Z,85.80
2022-08-17T23:53:38.100Z,85.10
2022-08-17T23:56:10.410Z,85.00
2022-08-17T23:58:39.323Z,85.00
